Time;durP1;ratioP1;P1;durP2;ratioP2;P2;SDS_P1;SDS_P2;PMS_P1;PMS_P2;Temp;Humidity;BMP_temperature;BMP_pressure;BME280_temperature;BME280_humidity;BME280_pressure;Samples;Min_cycle;Max_cycle;Signal;HPM_P1;HPM_P2
2023/12/24 00:01:18;;;;;;;2.58;2.38;;;;;;;;;;2074850;28;20017;-75
2023/12/24 00:02:37;;;;;;;2.08;1.88;;;;;;;;;;2079875;28;20026;-76
2023/12/24 00:03:56;;;;;;;2.10;1.90;;;;;;;;;;2073432;28;20313;-75
2023/12/24 00:05:15;;;;;;;2.08;1.88;;;;;;;;;;2077854;28;20478;-76
2023/12/24 00:06:34;;;;;;;2.50;2.30;;;;;;;;;;2080704;28;20049;-75
2023/12/24 00:07:53;;;;;;;2.60;2.30;;;;;;;;;;2081867;28;20399;-76
2023/12/24 00:09:12;;;;;;;2.10;1.90;;;;;;;;;;2078417;28;20506;-76
2023/12/24 00:10:31;;;;;;;2.22;1.95;;;;;;;;;;2079862;28;20030;-76
2023/12/24 00:11:50;;;;;;;2.17;1.98;;;;;;;;;;2081151;28;20575;-77
2023/12/24 00:13:09;;;;;;;2.45;2.03;;;;;;;;;;2075819;28;20382;-75
2023/12/24 00:14:27;;;;;;;2.22;2.03;;;;;;;;;;2077484;28;20050;-76
2023/12/24 00:15:46;;;;;;;2.22;2.03;;;;;;;;;;2080449;28;20383;-77
2023/12/24 00:17:05;;;;;;;2.20;2.00;;;;;;;;;;2076282;28;20022;-76
2023/12/24 00:18:24;;;;;;;2.30;2.10;;;;;;;;;;2072986;28;20029;-75
2023/12/24 00:19:42;;;;;;;2.20;1.80;;;;;;;;;;2072772;28;20105;-76
2023/12/24 00:21:01;;;;;;;2.10;1.90;;;;;;;;;;2069126;28;20439;-75
2023/12/24 00:22:20;;;;;;;2.08;1.88;;;;;;;;;;2071139;28;20033;-76
2023/12/24 00:23:39;;;;;;;2.80;2.28;;;;;;;;;;2079996;28;20020;-77
2023/12/24 00:24:58;;;;;;;1.73;1.63;;;;;;;;;;2085361;28;20033;-75
2023/12/24 00:26:17;;;;;;;2.28;2.08;;;;;;;;;;2075459;28;20029;-75
2023/12/24 00:27:36;;;;;;;2.78;2.00;;;;;;;;;;2076772;28;20025;-76
2023/12/24 00:28:55;;;;;;;1.70;1.60;;;;;;;;;;2078976;28;20057;-77
2023/12/24 00:30:14;;;;;;;1.98;1.83;;;;;;;;;;2081519;28;20490;-76
2023/12/24 00:31:33;;;;;;;2.10;1.85;;;;;;;;;;2077230;28;20041;-76
2023/12/24 00:32:55;;;;;;;2.33;2.13;;;;;;;;;;2069763;28;20033;-77
2023/12/24 00:34:14;;;;;;;2.53;2.03;;;;;;;;;;2079532;28;20057;-76
2023/12/24 00:35:35;;;;;;;2.08;1.95;;;;;;;;;;2073374;28;20572;-76
2023/12/24 00:36:54;;;;;;;2.83;2.40;;;;;;;;;;2071706;28;20105;-75
2023/12/24 00:38:13;;;;;;;1.92;1.80;;;;;;;;;;2072428;28;20021;-75
2023/12/24 00:39:32;;;;;;;2.17;2.00;;;;;;;;;;2076809;28;20073;-76
2023/12/24 00:40:51;;;;;;;2.80;1.70;;;;;;;;;;2079852;28;20030;-76
2023/12/24 00:42:10;;;;;;;1.85;1.73;;;;;;;;;;2079170;28;20467;-76
2023/12/24 00:43:29;;;;;;;2.00;1.90;;;;;;;;;;2080865;28;20101;-76
2023/12/24 00:44:48;;;;;;;2.10;1.90;;;;;;;;;;2082104;28;20034;-76
2023/12/24 00:46:07;;;;;;;1.98;1.88;;;;;;;;;;2076057;28;20025;-75
2023/12/24 00:47:26;;;;;;;1.95;1.70;;;;;;;;;;2077104;28;20474;-76
2023/12/24 00:48:45;;;;;;;1.73;1.63;;;;;;;;;;2079180;28;20037;-76
2023/12/24 00:50:05;;;;;;;2.35;2.10;;;;;;;;;;2079432;28;20046;-78
2023/12/24 00:51:23;;;;;;;2.05;1.70;;;;;;;;;;2081827;28;20030;-75
2023/12/24 00:52:42;;;;;;;1.77;1.50;;;;;;;;;;2080928;28;20033;-75
2023/12/24 00:54:01;;;;;;;2.83;2.10;;;;;;;;;;2080517;28;20433;-76
2023/12/24 00:55:21;;;;;;;1.70;1.60;;;;;;;;;;2075364;28;20030;-76
2023/12/24 00:56:40;;;;;;;1.73;1.63;;;;;;;;;;2071047;28;20109;-77
2023/12/24 00:57:59;;;;;;;2.33;1.77;;;;;;;;;;2076543;28;20025;-76
2023/12/24 00:59:18;;;;;;;2.05;1.92;;;;;;;;;;2078457;28;20530;-75
2023/12/24 01:00:36;;;;;;;2.47;2.28;;;;;;;;;;2081057;28;20414;-76
2023/12/24 01:01:55;;;;;;;1.80;1.70;;;;;;;;;;2081471;28;20490;-76
2023/12/24 01:03:15;;;;;;;1.75;1.65;;;;;;;;;;2069604;28;20029;-76
2023/12/24 01:04:34;;;;;;;2.08;1.98;;;;;;;;;;2069812;28;20089;-75
2023/12/24 01:05:53;;;;;;;6.93;1.90;;;;;;;;;;2071510;28;20034;-76
2023/12/24 01:07:12;;;;;;;2.17;1.73;;;;;;;;;;2075075;28;20093;-78
2023/12/24 01:08:31;;;;;;;1.98;1.70;;;;;;;;;;2084988;28;20612;-79
2023/12/24 01:09:50;;;;;;;1.77;1.67;;;;;;;;;;2090218;28;20059;-76
2023/12/24 01:11:09;;;;;;;2.30;2.10;;;;;;;;;;2084461;28;20033;-78
2023/12/24 01:12:29;;;;;;;2.17;1.98;;;;;;;;;;2084923;28;20022;-75
2023/12/24 01:13:48;;;;;;;2.38;1.90;;;;;;;;;;2081258;28;20092;-76
2023/12/24 01:15:07;;;;;;;1.85;1.70;;;;;;;;;;2081285;28;20053;-75
2023/12/24 01:16:25;;;;;;;1.75;1.65;;;;;;;;;;2083274;28;20605;-76
2023/12/24 01:17:44;;;;;;;1.70;1.60;;;;;;;;;;2077870;28;20034;-74
2023/12/24 01:19:03;;;;;;;2.00;1.90;;;;;;;;;;2083527;28;20033;-77
2023/12/24 01:20:22;;;;;;;2.00;1.90;;;;;;;;;;2088978;28;20013;-76
2023/12/24 01:21:41;;;;;;;1.95;1.75;;;;;;;;;;2090661;28;20665;-76
2023/12/24 01:23:01;;;;;;;2.50;2.30;;;;;;;;;;2089610;28;20028;-76
2023/12/24 01:24:20;;;;;;;2.10;1.95;;;;;;;;;;2084160;28;20042;-78
2023/12/24 01:25:39;;;;;;;2.13;1.92;;;;;;;;;;2077415;28;20021;-75
2023/12/24 01:26:59;;;;;;;1.83;1.73;;;;;;;;;;2081380;28;20554;-77
2023/12/24 01:28:18;;;;;;;1.80;1.65;;;;;;;;;;2085127;28;20030;-75
2023/12/24 01:29:37;;;;;;;2.40;2.15;;;;;;;;;;2079864;28;20042;-76
2023/12/24 01:30:56;;;;;;;2.13;1.70;;;;;;;;;;2077440;28;20033;-76
2023/12/24 01:32:15;;;;;;;2.08;1.90;;;;;;;;;;2081315;28;20037;-75
2023/12/24 01:33:34;;;;;;;1.90;1.75;;;;;;;;;;2074027;28;20030;-76
2023/12/24 01:34:52;;;;;;;2.42;1.90;;;;;;;;;;2079009;28;20446;-75
2023/12/24 01:36:12;;;;;;;2.45;2.25;;;;;;;;;;2079500;28;20092;-75
2023/12/24 01:37:31;;;;;;;2.30;2.10;;;;;;;;;;2079611;28;20112;-76
2023/12/24 01:38:49;;;;;;;1.60;1.50;;;;;;;;;;2073538;28;20034;-76
2023/12/24 01:40:08;;;;;;;2.10;1.90;;;;;;;;;;2078853;28;20030;-76
2023/12/24 01:41:27;;;;;;;1.65;1.50;;;;;;;;;;2081489;28;20061;-76
2023/12/24 01:42:47;;;;;;;2.22;2.05;;;;;;;;;;2080900;28;20025;-77
2023/12/24 01:44:06;;;;;;;2.20;1.20;;;;;;;;;;2080943;28;20033;-76
2023/12/24 01:45:25;;;;;;;2.00;1.90;;;;;;;;;;2078767;28;20490;-75
2023/12/24 01:46:45;;;;;;;1.77;1.67;;;;;;;;;;2080530;28;20025;-76
2023/12/24 01:48:04;;;;;;;1.98;1.88;;;;;;;;;;2079364;28;20026;-76
2023/12/24 01:49:23;;;;;;;2.22;2.03;;;;;;;;;;2081414;28;20021;-75
2023/12/24 01:50:43;;;;;;;1.80;1.70;;;;;;;;;;2074030;28;20492;-75
2023/12/24 01:52:02;;;;;;;1.80;1.70;;;;;;;;;;2079002;28;20038;-76
2023/12/24 01:53:21;;;;;;;2.38;1.90;;;;;;;;;;2075425;28;20443;-75
2023/12/24 01:54:41;;;;;;;1.75;1.65;;;;;;;;;;2077285;28;20030;-76
2023/12/24 01:56:01;;;;;;;1.95;1.75;;;;;;;;;;2072375;28;20058;-76
2023/12/24 01:57:21;;;;;;;1.70;1.60;;;;;;;;;;2076320;28;20029;-76
2023/12/24 01:58:40;;;;;;;1.80;1.60;;;;;;;;;;2079104;28;20025;-75
2023/12/24 01:59:59;;;;;;;2.20;1.80;;;;;;;;;;2073913;28;20047;-76
2023/12/24 02:01:18;;;;;;;1.77;1.67;;;;;;;;;;2072076;28;20027;-75
2023/12/24 02:02:38;;;;;;;2.10;1.90;;;;;;;;;;2078068;28;20025;-75
2023/12/24 02:03:57;;;;;;;1.75;1.65;;;;;;;;;;2079720;28;20117;-75
2023/12/24 02:05:16;;;;;;;1.45;1.35;;;;;;;;;;2073422;28;20034;-75
2023/12/24 02:06:36;;;;;;;1.55;1.45;;;;;;;;;;2070785;28;20041;-75
2023/12/24 02:07:55;;;;;;;1.30;1.20;;;;;;;;;;2078596;28;20037;-75
2023/12/24 02:09:14;;;;;;;2.20;1.95;;;;;;;;;;2078882;28;20045;-75
2023/12/24 02:10:33;;;;;;;2.00;1.65;;;;;;;;;;2080221;28;20105;-74
2023/12/24 02:11:52;;;;;;;1.67;1.58;;;;;;;;;;2080380;28;20025;-75
2023/12/24 02:13:12;;;;;;;1.60;1.50;;;;;;;;;;2080306;28;20017;-74
2023/12/24 02:14:31;;;;;;;1.85;1.75;;;;;;;;;;2078978;28;20022;-75
2023/12/24 02:15:54;;;;;;;1.60;1.50;;;;;;;;;;2071896;28;21459;-76
2023/12/24 02:17:14;;;;;;;1.80;1.70;;;;;;;;;;2076285;28;20069;-78
2023/12/24 02:18:33;;;;;;;1.83;1.73;;;;;;;;;;2081095;28;20097;-75
2023/12/24 02:19:52;;;;;;;1.92;1.77;;;;;;;;;;2080214;28;20029;-75
2023/12/24 02:21:11;;;;;;;1.85;1.60;;;;;;;;;;2078829;28;20030;-76
2023/12/24 02:22:30;;;;;;;2.38;1.63;;;;;;;;;;2078008;28;20025;-76
2023/12/24 02:23:49;;;;;;;1.70;1.50;;;;;;;;;;2073620;28;20677;-74
2023/12/24 02:25:08;;;;;;;1.92;1.52;;;;;;;;;;2077604;28;20029;-75
2023/12/24 02:26:33;;;;;;;2.35;1.58;;;;;;;;;;2072948;28;20038;-75
2023/12/24 02:27:58;;;;;;;1.80;1.70;;;;;;;;;;2078494;28;20571;-75
2023/12/24 02:29:20;;;;;;;1.77;1.67;;;;;;;;;;2073907;28;20057;-74
2023/12/24 02:30:43;;;;;;;1.77;1.67;;;;;;;;;;2071694;28;20030;-75
2023/12/24 02:32:06;;;;;;;1.70;1.60;;;;;;;;;;2074711;28;20026;-76
2023/12/24 02:33:29;;;;;;;2.20;2.00;;;;;;;;;;2072597;28;20041;-75
2023/12/24 02:34:48;;;;;;;1.77;1.67;;;;;;;;;;2075981;28;20045;-76
2023/12/24 02:36:11;;;;;;;1.50;1.40;;;;;;;;;;2079015;28;20041;-75
2023/12/24 02:37:31;;;;;;;1.80;1.70;;;;;;;;;;2081084;28;20491;-76
2023/12/24 02:38:51;;;;;;;2.00;1.80;;;;;;;;;;2072342;28;20029;-75
2023/12/24 02:40:10;;;;;;;2.10;1.90;;;;;;;;;;2064691;28;20034;-76
2023/12/24 02:41:29;;;;;;;1.60;1.50;;;;;;;;;;2070408;28;20483;-75
2023/12/24 02:42:48;;;;;;;2.33;2.10;;;;;;;;;;2071210;28;20037;-76
2023/12/24 02:44:07;;;;;;;2.28;1.92;;;;;;;;;;2076558;28;20115;-75
2023/12/24 02:45:26;;;;;;;1.42;1.33;;;;;;;;;;2073493;28;20534;-75
2023/12/24 02:46:45;;;;;;;1.60;1.50;;;;;;;;;;2076907;28;20025;-75
2023/12/24 02:48:04;;;;;;;1.55;1.45;;;;;;;;;;2076440;28;20021;-75
2023/12/24 02:49:23;;;;;;;1.45;1.35;;;;;;;;;;2079210;28;20061;-75
2023/12/24 02:50:42;;;;;;;1.95;1.80;;;;;;;;;;2078719;28;20037;-75
2023/12/24 02:52:01;;;;;;;1.90;1.70;;;;;;;;;;2070934;28;20034;-75
2023/12/24 02:53:19;;;;;;;1.90;1.48;;;;;;;;;;2072041;28;20022;-74
2023/12/24 02:54:38;;;;;;;1.38;1.27;;;;;;;;;;2077706;28;20022;-76
2023/12/24 02:55:57;;;;;;;1.50;1.40;;;;;;;;;;2080440;28;20100;-75
2023/12/24 02:57:16;;;;;;;1.38;1.27;;;;;;;;;;2080257;28;20065;-75
2023/12/24 02:58:35;;;;;;;1.27;1.10;;;;;;;;;;2071730;28;20041;-75
2023/12/24 02:59:54;;;;;;;1.50;1.40;;;;;;;;;;2077688;28;20033;-75
2023/12/24 03:01:13;;;;;;;2.22;1.55;;;;;;;;;;2067323;28;20438;-75
2023/12/24 03:02:32;;;;;;;1.65;1.52;;;;;;;;;;2068578;28;20056;-75
2023/12/24 03:03:51;;;;;;;1.50;1.40;;;;;;;;;;2076399;28;20092;-75
2023/12/24 03:05:10;;;;;;;1.38;1.20;;;;;;;;;;2076267;28;20389;-75
2023/12/24 03:06:29;;;;;;;1.58;1.48;;;;;;;;;;2073457;28;20437;-75
2023/12/24 03:07:48;;;;;;;1.40;1.30;;;;;;;;;;2077429;28;20033;-76
2023/12/24 03:09:08;;;;;;;1.67;1.58;;;;;;;;;;2072703;28;20062;-75
2023/12/24 03:10:27;;;;;;;1.40;1.30;;;;;;;;;;2069539;28;20041;-75
2023/12/24 03:11:46;;;;;;;1.33;1.23;;;;;;;;;;2079366;28;20029;-75
2023/12/24 03:13:05;;;;;;;1.08;1.02;;;;;;;;;;2075731;28;20141;-76
2023/12/24 03:14:24;;;;;;;1.33;1.20;;;;;;;;;;2076907;28;20041;-75
2023/12/24 03:15:43;;;;;;;1.73;1.63;;;;;;;;;;2074269;28;20578;-75
2023/12/24 03:17:02;;;;;;;1.40;1.30;;;;;;;;;;2070639;28;20439;-75
2023/12/24 03:18:21;;;;;;;1.42;1.33;;;;;;;;;;2072293;28;20038;-75
2023/12/24 03:19:40;;;;;;;1.67;1.58;;;;;;;;;;2076931;28;20482;-76
2023/12/24 03:21:00;;;;;;;1.52;1.42;;;;;;;;;;2076263;28;20051;-77
2023/12/24 03:22:20;;;;;;;1.35;1.25;;;;;;;;;;2076368;28;20018;-76
2023/12/24 03:23:38;;;;;;;1.40;1.30;;;;;;;;;;2078403;28;20482;-77
2023/12/24 03:24:57;;;;;;;1.45;1.17;;;;;;;;;;2072999;28;20033;-79
2023/12/24 03:26:20;;;;;;;1.60;1.50;;;;;;;;;;2076304;28;20437;-74
2023/12/24 03:27:39;;;;;;;1.55;1.45;;;;;;;;;;2068016;28;20033;-77
2023/12/24 03:29:00;;;;;;;2.30;1.63;;;;;;;;;;2068523;28;20038;-73
2023/12/24 03:30:19;;;;;;;1.77;1.67;;;;;;;;;;2077126;28;20124;-75
2023/12/24 03:31:38;;;;;;;1.50;1.40;;;;;;;;;;2075288;28;20022;-75
2023/12/24 03:32:56;;;;;;;1.40;1.30;;;;;;;;;;2068248;28;20017;-74
2023/12/24 03:34:16;;;;;;;1.42;1.33;;;;;;;;;;2078006;28;20606;-74
2023/12/24 03:35:35;;;;;;;1.00;1.00;;;;;;;;;;2073466;28;20045;-74
2023/12/24 03:36:54;;;;;;;1.70;1.60;;;;;;;;;;2070888;28;20066;-74
2023/12/24 03:38:13;;;;;;;1.58;1.48;;;;;;;;;;2078124;28;20100;-75
2023/12/24 03:39:32;;;;;;;1.50;1.40;;;;;;;;;;2080307;28;20029;-75
2023/12/24 03:40:51;;;;;;;1.38;1.27;;;;;;;;;;2073447;28;20483;-75
2023/12/24 03:42:10;;;;;;;1.60;1.50;;;;;;;;;;2073516;28;20491;-74
2023/12/24 03:43:29;;;;;;;1.92;1.50;;;;;;;;;;2075892;28;20038;-76
2023/12/24 03:44:48;;;;;;;1.50;1.40;;;;;;;;;;2072718;28;20025;-74
2023/12/24 03:46:07;;;;;;;1.38;1.27;;;;;;;;;;2077046;28;20073;-76
2023/12/24 03:47:26;;;;;;;1.48;1.20;;;;;;;;;;2072853;28;20033;-75
2023/12/24 03:48:45;;;;;;;1.70;1.60;;;;;;;;;;2075097;28;20038;-76
2023/12/24 03:50:05;;;;;;;1.33;1.23;;;;;;;;;;2078710;28;20053;-77
2023/12/24 03:51:24;;;;;;;1.70;1.60;;;;;;;;;;2078448;28;20077;-77
2023/12/24 03:52:44;;;;;;;1.70;1.60;;;;;;;;;;2072928;28;20179;-74
2023/12/24 03:54:02;;;;;;;1.77;1.67;;;;;;;;;;2071090;28;20077;-76
2023/12/24 03:55:22;;;;;;;1.45;1.35;;;;;;;;;;2071301;28;20030;-75
2023/12/24 03:56:41;;;;;;;2.03;1.83;;;;;;;;;;2075937;28;20033;-75
2023/12/24 03:58:00;;;;;;;1.65;1.55;;;;;;;;;;2071119;28;20050;-74
2023/12/24 03:59:19;;;;;;;1.83;1.73;;;;;;;;;;2077885;28;20391;-75
2023/12/24 04:00:38;;;;;;;1.48;1.38;;;;;;;;;;2078875;28;20105;-74
2023/12/24 04:01:57;;;;;;;1.50;1.40;;;;;;;;;;2080330;28;20425;-74
2023/12/24 04:03:16;;;;;;;1.70;1.60;;;;;;;;;;2075318;28;20034;-74
2023/12/24 04:04:35;;;;;;;1.60;1.50;;;;;;;;;;2069914;28;20038;-75
2023/12/24 04:05:54;;;;;;;1.50;1.40;;;;;;;;;;2076905;28;20030;-76
2023/12/24 04:07:16;;;;;;;1.40;1.30;;;;;;;;;;2080393;28;20029;-77
2023/12/24 04:08:35;;;;;;;1.15;1.08;;;;;;;;;;2080415;28;20026;-78
2023/12/24 04:09:53;;;;;;;1.60;1.38;;;;;;;;;;2073171;28;20247;-77
2023/12/24 04:11:13;;;;;;;1.58;1.45;;;;;;;;;;2077497;28;20104;-79
2023/12/24 04:12:31;;;;;;;1.73;1.60;;;;;;;;;;2079719;28;20033;-75
2023/12/24 04:13:50;;;;;;;1.60;1.50;;;;;;;;;;2074023;28;20033;-75
2023/12/24 04:15:10;;;;;;;1.35;1.25;;;;;;;;;;2077564;28;20398;-75
2023/12/24 04:16:29;;;;;;;1.20;1.15;;;;;;;;;;2079904;28;20038;-77
2023/12/24 04:17:48;;;;;;;1.52;1.42;;;;;;;;;;2080550;28;20033;-76
2023/12/24 04:19:07;;;;;;;1.48;1.38;;;;;;;;;;2080950;28;20437;-75
2023/12/24 04:20:26;;;;;;;1.42;1.33;;;;;;;;;;2080653;28;20021;-74
2023/12/24 04:21:45;;;;;;;1.08;1.02;;;;;;;;;;2080687;28;20033;-74
2023/12/24 04:23:04;;;;;;;1.45;1.35;;;;;;;;;;2079769;28;20026;-75
2023/12/24 04:24:23;;;;;;;1.70;1.58;;;;;;;;;;2080433;28;20029;-74
2023/12/24 04:25:42;;;;;;;1.50;1.30;;;;;;;;;;2080563;28;20034;-75
2023/12/24 04:27:01;;;;;;;1.88;1.77;;;;;;;;;;2080349;28;20030;-74
2023/12/24 04:28:20;;;;;;;1.48;1.38;;;;;;;;;;2081513;28;20454;-74
2023/12/24 04:29:39;;;;;;;1.55;1.45;;;;;;;;;;2081402;28;20128;-75
2023/12/24 04:30:58;;;;;;;1.63;1.52;;;;;;;;;;2080695;28;20033;-75
2023/12/24 04:32:20;;;;;;;1.67;1.58;;;;;;;;;;2080561;28;20026;-76
2023/12/24 04:33:39;;;;;;;1.55;1.45;;;;;;;;;;2080818;28;20029;-78
2023/12/24 04:34:58;;;;;;;1.65;1.55;;;;;;;;;;2079999;28;20037;-75
2023/12/24 04:36:19;;;;;;;1.50;1.40;;;;;;;;;;2079894;28;20064;-74
2023/12/24 04:37:38;;;;;;;1.48;1.38;;;;;;;;;;2081723;28;20033;-75
2023/12/24 04:38:57;;;;;;;3.65;1.75;;;;;;;;;;2075125;28;20026;-74
2023/12/24 04:40:16;;;;;;;1.30;1.20;;;;;;;;;;2080005;28;20113;-74
2023/12/24 04:41:35;;;;;;;1.40;1.30;;;;;;;;;;2080135;28;20029;-75
2023/12/24 04:42:54;;;;;;;1.27;1.17;;;;;;;;;;2083584;28;20034;-74
2023/12/24 04:44:15;;;;;;;1.55;1.45;;;;;;;;;;2073315;28;20507;-75
2023/12/24 04:45:34;;;;;;;1.77;1.42;;;;;;;;;;2080351;28;20069;-75
2023/12/24 04:46:53;;;;;;;1.45;1.35;;;;;;;;;;2074547;28;20023;-75
2023/12/24 04:48:12;;;;;;;1.48;1.38;;;;;;;;;;2084613;28;20025;-76
2023/12/24 04:49:32;;;;;;;1.77;1.67;;;;;;;;;;2085476;28;20075;-77
2023/12/24 04:50:51;;;;;;;1.50;1.40;;;;;;;;;;2089371;28;20037;-78
2023/12/24 04:52:10;;;;;;;1.50;1.40;;;;;;;;;;2091268;28;20037;-78
2023/12/24 04:53:29;;;;;;;1.70;1.60;;;;;;;;;;2086128;28;20018;-76
2023/12/24 04:54:48;;;;;;;1.20;1.10;;;;;;;;;;2079936;28;20018;-78
2023/12/24 04:56:17;;;;;;;1.60;1.50;;;;;;;;;;2090351;28;20033;-77
2023/12/24 04:57:36;;;;;;;1.33;1.23;;;;;;;;;;2077961;28;20033;-77
2023/12/24 04:58:57;;;;;;;1.67;1.58;;;;;;;;;;2073982;28;20045;-75
2023/12/24 05:00:16;;;;;;;1.40;1.30;;;;;;;;;;2076860;28;20059;-75
2023/12/24 05:01:35;;;;;;;1.50;1.40;;;;;;;;;;2081212;28;20026;-76
2023/12/24 05:02:54;;;;;;;2.13;1.45;;;;;;;;;;2090100;28;20025;-76
2023/12/24 05:04:13;;;;;;;4.95;1.83;;;;;;;;;;2086186;28;20038;-75
2023/12/24 05:05:32;;;;;;;1.50;1.40;;;;;;;;;;2077072;28;20030;-75
2023/12/24 05:06:51;;;;;;;1.55;1.45;;;;;;;;;;2087646;28;20014;-77
2023/12/24 05:08:11;;;;;;;1.33;1.23;;;;;;;;;;2084763;28;20033;-74
2023/12/24 05:09:29;;;;;;;1.52;1.42;;;;;;;;;;2078287;28;20061;-75
2023/12/24 05:10:49;;;;;;;1.50;1.40;;;;;;;;;;2080830;28;20076;-76
2023/12/24 05:12:08;;;;;;;1.35;1.25;;;;;;;;;;2085338;28;20057;-74
2023/12/24 05:13:27;;;;;;;1.40;1.30;;;;;;;;;;2074190;28;20517;-76
2023/12/24 05:14:46;;;;;;;1.23;1.13;;;;;;;;;;2070867;28;20034;-75
2023/12/24 05:16:05;;;;;;;1.50;1.40;;;;;;;;;;2071267;28;20430;-77
2023/12/24 05:17:25;;;;;;;1.38;1.27;;;;;;;;;;2079196;28;20025;-75
2023/12/24 05:18:44;;;;;;;1.60;1.33;;;;;;;;;;2081023;28;20116;-78
2023/12/24 05:20:03;;;;;;;1.52;1.42;;;;;;;;;;2081470;28;20474;-75
2023/12/24 05:21:22;;;;;;;1.50;1.40;;;;;;;;;;2079897;28;20029;-75
2023/12/24 05:22:40;;;;;;;1.50;1.40;;;;;;;;;;2079677;28;20021;-76
2023/12/24 05:24:00;;;;;;;1.58;1.48;;;;;;;;;;2079887;28;20121;-76
2023/12/24 05:25:20;;;;;;;1.38;1.27;;;;;;;;;;2075351;28;20030;-75
2023/12/24 05:26:39;;;;;;;1.58;1.48;;;;;;;;;;2073892;28;20387;-75
2023/12/24 05:27:58;;;;;;;1.40;1.30;;;;;;;;;;2077595;28;20076;-77
2023/12/24 05:29:18;;;;;;;1.55;1.45;;;;;;;;;;2075948;28;20041;-75
2023/12/24 05:30:37;;;;;;;1.60;1.50;;;;;;;;;;2071355;28;20018;-75
2023/12/24 05:31:57;;;;;;;1.88;1.75;;;;;;;;;;2077194;28;20029;-75
2023/12/24 05:33:16;;;;;;;1.30;1.20;;;;;;;;;;2073338;28;20435;-75
2023/12/24 05:34:35;;;;;;;2.28;1.25;;;;;;;;;;2078713;28;20038;-74
2023/12/24 05:35:54;;;;;;;2.10;1.70;;;;;;;;;;2080136;28;20503;-77
2023/12/24 05:37:14;;;;;;;1.73;1.63;;;;;;;;;;2076380;28;20479;-75
2023/12/24 05:38:32;;;;;;;1.67;1.58;;;;;;;;;;2071332;28;20495;-75
2023/12/24 05:39:51;;;;;;;1.50;1.40;;;;;;;;;;2072760;28;20026;-75
2023/12/24 05:41:12;;;;;;;1.67;1.58;;;;;;;;;;2074322;28;20025;-75
2023/12/24 05:42:31;;;;;;;1.80;1.70;;;;;;;;;;2081685;28;20438;-76
2023/12/24 05:43:51;;;;;;;1.58;1.48;;;;;;;;;;2074051;28;20495;-75
2023/12/24 05:45:12;;;;;;;1.63;1.52;;;;;;;;;;2071985;28;20127;-76
2023/12/24 05:46:31;;;;;;;1.70;1.60;;;;;;;;;;2072523;28;20021;-75
2023/12/24 05:47:50;;;;;;;2.45;1.63;;;;;;;;;;2078557;28;20033;-75
2023/12/24 05:49:09;;;;;;;1.60;1.50;;;;;;;;;;2080384;28;20037;-75
2023/12/24 05:50:28;;;;;;;1.50;1.40;;;;;;;;;;2072866;28;20033;-76
2023/12/24 05:51:48;;;;;;;1.40;1.23;;;;;;;;;;2076341;28;20037;-75
2023/12/24 05:53:07;;;;;;;1.60;1.50;;;;;;;;;;2079757;28;20049;-75
2023/12/24 05:54:26;;;;;;;1.65;1.55;;;;;;;;;;2081037;28;20057;-75
2023/12/24 05:55:45;;;;;;;1.63;1.50;;;;;;;;;;2080230;28;20453;-75
2023/12/24 05:57:04;;;;;;;1.67;1.58;;;;;;;;;;2079250;28;20678;-76
2023/12/24 05:58:24;;;;;;;1.80;1.33;;;;;;;;;;2071757;28;20030;-75
2023/12/24 05:59:43;;;;;;;1.77;1.67;;;;;;;;;;2072028;28;20061;-75
2023/12/24 06:01:02;;;;;;;1.58;1.48;;;;;;;;;;2077783;28;20022;-76
2023/12/24 06:02:21;;;;;;;1.80;1.70;;;;;;;;;;2080458;28;20030;-74
2023/12/24 06:03:40;;;;;;;1.80;1.70;;;;;;;;;;2080217;28;20466;-75
2023/12/24 06:04:59;;;;;;;1.83;1.58;;;;;;;;;;2078481;28;20021;-75
2023/12/24 06:06:17;;;;;;;2.22;1.48;;;;;;;;;;2074990;28;20476;-75
2023/12/24 06:07:36;;;;;;;1.70;1.60;;;;;;;;;;2078820;28;20041;-74
2023/12/24 06:08:55;;;;;;;1.73;1.63;;;;;;;;;;2078946;28;20037;-74
2023/12/24 06:10:15;;;;;;;1.70;1.60;;;;;;;;;;2080752;28;20061;-75
2023/12/24 06:11:34;;;;;;;1.40;1.30;;;;;;;;;;2080660;28;20041;-75
2023/12/24 06:12:54;;;;;;;1.70;1.60;;;;;;;;;;2078709;28;20034;-75
2023/12/24 06:14:12;;;;;;;1.48;1.38;;;;;;;;;;2074032;28;20057;-76
2023/12/24 06:15:32;;;;;;;1.83;1.65;;;;;;;;;;2077970;28;20041;-75
2023/12/24 06:16:51;;;;;;;1.92;1.75;;;;;;;;;;2079069;28;20498;-77
2023/12/24 06:18:10;;;;;;;1.42;1.33;;;;;;;;;;2075353;28;20490;-75
2023/12/24 06:19:29;;;;;;;1.80;1.70;;;;;;;;;;2070823;28;20503;-75
2023/12/24 06:20:48;;;;;;;1.65;1.48;;;;;;;;;;2077098;28;20029;-77
2023/12/24 06:22:07;;;;;;;1.52;1.33;;;;;;;;;;2075947;28;20606;-75
2023/12/24 06:23:26;;;;;;;1.63;1.52;;;;;;;;;;2078392;28;20033;-75
2023/12/24 06:24:45;;;;;;;1.70;1.60;;;;;;;;;;2078277;28;20034;-75
2023/12/24 06:26:04;;;;;;;1.60;1.50;;;;;;;;;;2079348;28;20025;-75
2023/12/24 06:27:23;;;;;;;2.00;1.80;;;;;;;;;;2075003;28;20033;-77
2023/12/24 06:28:42;;;;;;;2.05;1.92;;;;;;;;;;2072892;28;20046;-75
2023/12/24 06:30:01;;;;;;;1.83;1.73;;;;;;;;;;2071654;28;20549;-75
2023/12/24 06:31:22;;;;;;;1.67;1.58;;;;;;;;;;2070398;28;20025;-75
2023/12/24 06:32:46;;;;;;;1.92;1.83;;;;;;;;;;2076696;28;20399;-75
2023/12/24 06:34:05;;;;;;;2.08;1.90;;;;;;;;;;2074634;28;20037;-76
2023/12/24 06:35:25;;;;;;;1.95;1.80;;;;;;;;;;2076499;28;20025;-75
2023/12/24 06:36:43;;;;;;;2.38;2.17;;;;;;;;;;2073133;28;20578;-76
2023/12/24 06:38:02;;;;;;;1.88;1.77;;;;;;;;;;2077651;28;20065;-75
2023/12/24 06:39:22;;;;;;;1.95;1.70;;;;;;;;;;2071959;28;20104;-75
2023/12/24 06:40:40;;;;;;;2.10;1.73;;;;;;;;;;2070398;28;20034;-76
2023/12/24 06:41:59;;;;;;;2.10;1.90;;;;;;;;;;2078759;28;20105;-75
2023/12/24 06:43:18;;;;;;;1.77;1.67;;;;;;;;;;2079402;28;20381;-75
2023/12/24 06:44:41;;;;;;;1.90;1.80;;;;;;;;;;2080414;28;20029;-76
2023/12/24 06:46:00;;;;;;;1.92;1.83;;;;;;;;;;2078455;28;20120;-76
2023/12/24 06:47:19;;;;;;;2.10;2.00;;;;;;;;;;2072135;28;20056;-76
2023/12/24 06:48:39;;;;;;;1.75;1.60;;;;;;;;;;2076965;28;20069;-75
2023/12/24 06:49:58;;;;;;;2.42;1.80;;;;;;;;;;2073889;28;20165;-75
2023/12/24 06:51:17;;;;;;;1.98;1.88;;;;;;;;;;2074776;28;20030;-74
2023/12/24 06:52:36;;;;;;;1.90;1.80;;;;;;;;;;2073763;28;20030;-76
2023/12/24 06:53:55;;;;;;;1.75;1.65;;;;;;;;;;2077808;28;20029;-75
2023/12/24 06:55:14;;;;;;;2.30;1.80;;;;;;;;;;2074620;28;20030;-75
2023/12/24 06:56:33;;;;;;;1.75;1.65;;;;;;;;;;2077594;28;20065;-75
2023/12/24 06:57:52;;;;;;;1.50;1.40;;;;;;;;;;2082575;28;20022;-75
2023/12/24 06:59:12;;;;;;;1.95;1.85;;;;;;;;;;2081201;28;20614;-75
2023/12/24 07:00:31;;;;;;;2.03;1.92;;;;;;;;;;2078775;28;20025;-75
2023/12/24 07:01:50;;;;;;;2.10;1.90;;;;;;;;;;2074596;28;20384;-75
2023/12/24 07:03:09;;;;;;;2.28;2.03;;;;;;;;;;2071522;28;20042;-74
2023/12/24 07:04:28;;;;;;;1.80;1.70;;;;;;;;;;2073241;28;20116;-75
2023/12/24 07:05:47;;;;;;;1.80;1.70;;;;;;;;;;2078040;28;20033;-75
2023/12/24 07:07:05;;;;;;;3.17;2.28;;;;;;;;;;2078299;28;20037;-75
2023/12/24 07:08:24;;;;;;;1.80;1.70;;;;;;;;;;2074581;28;20037;-74
2023/12/24 07:09:43;;;;;;;2.60;1.90;;;;;;;;;;2070695;28;20030;-76
2023/12/24 07:11:02;;;;;;;1.75;1.65;;;;;;;;;;2077722;28;20033;-76
2023/12/24 07:12:21;;;;;;;2.45;2.25;;;;;;;;;;2080210;28;20033;-75
2023/12/24 07:13:40;;;;;;;2.42;2.10;;;;;;;;;;2074849;28;20033;-75
2023/12/24 07:14:59;;;;;;;2.20;1.95;;;;;;;;;;2069931;28;20030;-75
2023/12/24 07:16:18;;;;;;;2.20;1.92;;;;;;;;;;2070370;28;20022;-75
2023/12/24 07:17:37;;;;;;;2.20;2.00;;;;;;;;;;2077913;28;20033;-76
2023/12/24 07:18:57;;;;;;;2.28;2.08;;;;;;;;;;2080565;28;20387;-75
2023/12/24 07:20:16;;;;;;;2.70;1.90;;;;;;;;;;2078822;28;20041;-75
2023/12/24 07:21:35;;;;;;;2.33;2.08;;;;;;;;;;2074527;28;20105;-76
2023/12/24 07:22:55;;;;;;;5.03;2.08;;;;;;;;;;2072374;28;20112;-75
2023/12/24 07:24:14;;;;;;;2.30;2.10;;;;;;;;;;2077626;28;20026;-75
2023/12/24 07:25:33;;;;;;;2.58;2.13;;;;;;;;;;2073062;28;20026;-75
2023/12/24 07:26:52;;;;;;;2.83;2.63;;;;;;;;;;2070256;28;20029;-75
2023/12/24 07:28:11;;;;;;;2.50;2.30;;;;;;;;;;2076075;28;20371;-76
2023/12/24 07:29:30;;;;;;;2.03;1.90;;;;;;;;;;2075719;28;20550;-74
2023/12/24 07:30:49;;;;;;;2.30;2.10;;;;;;;;;;2078238;28;20033;-75
2023/12/24 07:32:08;;;;;;;1.75;1.65;;;;;;;;;;2072988;28;20437;-75
2023/12/24 07:33:27;;;;;;;2.13;1.92;;;;;;;;;;2069728;28;20504;-75
2023/12/24 07:34:46;;;;;;;2.08;1.98;;;;;;;;;;2078228;28;20100;-75
2023/12/24 07:36:05;;;;;;;2.50;2.22;;;;;;;;;;2073564;28;20104;-75
2023/12/24 07:37:24;;;;;;;2.13;1.88;;;;;;;;;;2071282;28;20025;-76
2023/12/24 07:38:43;;;;;;;2.10;1.90;;;;;;;;;;2076979;28;20018;-75
2023/12/24 07:40:03;;;;;;;2.33;2.00;;;;;;;;;;2073561;28;20045;-74
2023/12/24 07:41:25;;;;;;;1.77;1.67;;;;;;;;;;2071636;28;20107;-74
2023/12/24 07:42:45;;;;;;;2.17;1.98;;;;;;;;;;2077543;28;20038;-75
2023/12/24 07:44:04;;;;;;;2.05;1.85;;;;;;;;;;2079771;28;20140;-75
2023/12/24 07:45:24;;;;;;;2.75;2.42;;;;;;;;;;2080209;28;20030;-78
2023/12/24 07:46:44;;;;;;;2.35;2.05;;;;;;;;;;2081408;28;20021;-75
2023/12/24 07:48:03;;;;;;;2.22;2.03;;;;;;;;;;2079519;28;20493;-75
2023/12/24 07:49:22;;;;;;;2.50;2.30;;;;;;;;;;2080481;28;20104;-75
2023/12/24 07:50:42;;;;;;;2.28;2.08;;;;;;;;;;2075798;28;20085;-75
2023/12/24 07:52:01;;;;;;;2.35;2.15;;;;;;;;;;2077537;28;20022;-75
2023/12/24 07:53:20;;;;;;;1.83;1.73;;;;;;;;;;2080831;28;20021;-77
2023/12/24 07:54:38;;;;;;;2.42;2.22;;;;;;;;;;2076044;28;20033;-75
2023/12/24 07:55:57;;;;;;;2.42;2.22;;;;;;;;;;2079291;28;20069;-76